Time;durP1;ratioP1;P1;durP2;ratioP2;P2;SDS_P1;SDS_P2;PMS_P1;PMS_P2;Temp;Humidity;BMP_temperature;BMP_pressure;BME280_temperature;BME280_humidity;BME280_pressure;Samples;Min_cycle;Max_cycle;Signal;HPM_P1;HPM_P2
2022/04/26 03:36:41;;;;;;;19.00;13.68;;;7.10;99.90;;;;;;5063877;28;20091;-75
2022/04/26 03:39:07;;;;;;;20.00;13.93;;;7.10;99.90;;;;;;5069774;28;20032;-75
2022/04/26 03:41:33;;;;;;;20.17;14.65;;;7.10;99.90;;;;;;5049090;28;20043;-75
2022/04/26 03:43:59;;;;;;;21.13;12.95;;;7.10;99.90;;;;;;5068279;28;20143;-75
2022/04/26 03:46:24;;;;;;;16.63;12.95;;;7.00;99.90;;;;;;5066553;28;20028;-75
2022/04/26 03:48:50;;;;;;;21.27;13.38;;;7.00;99.90;;;;;;5070613;28;20037;-75
2022/04/26 03:51:15;;;;;;;20.55;12.98;;;7.00;99.90;;;;;;5048927;28;20044;-75
2022/04/26 03:53:41;;;;;;;20.05;12.38;;;7.00;99.90;;;;;;5052721;28;20035;-75
2022/04/26 03:56:07;;;;;;;18.67;12.07;;;6.90;99.90;;;;;;5070111;28;20043;-75
2022/04/26 03:58:33;;;;;;;17.80;11.85;;;6.90;99.90;;;;;;5070357;28;20044;-75
2022/04/26 04:00:59;;;;;;;19.58;11.82;;;6.90;99.90;;;;;;5070518;28;20418;-75
2022/04/26 04:03:24;;;;;;;20.50;12.73;;;6.80;99.90;;;;;;5052158;28;20033;-75
2022/04/26 04:05:50;;;;;;;16.20;12.05;;;6.80;99.90;;;;;;5046620;28;20036;-75
2022/04/26 04:08:16;;;;;;;17.63;12.88;;;6.80;99.90;;;;;;5067691;28;20075;-76
2022/04/26 04:10:41;;;;;;;18.60;12.48;;;6.80;99.90;;;;;;5070361;28;20563;-75
2022/04/26 04:13:07;;;;;;;18.35;12.02;;;6.80;99.90;;;;;;5066038;28;20040;-75
2022/04/26 04:15:32;;;;;;;21.05;12.88;;;6.80;99.90;;;;;;5063448;28;20036;-75
2022/04/26 04:17:58;;;;;;;18.33;12.75;;;6.70;99.90;;;;;;5068074;28;20494;-75
2022/04/26 04:20:23;;;;;;;17.73;12.05;;;6.70;99.90;;;;;;5070233;28;20498;-75
2022/04/26 04:22:49;;;;;;;19.13;11.63;;;6.70;99.90;;;;;;5069590;28;20043;-75
2022/04/26 04:25:18;;;;;;;18.73;12.40;;;6.70;99.90;;;;;;5070295;28;20070;-75
2022/04/26 04:27:43;;;;;;;20.15;12.75;;;6.70;99.90;;;;;;5063448;28;20538;-75
2022/04/26 04:30:09;;;;;;;20.50;12.68;;;6.70;99.90;;;;;;5064969;28;20250;-75
2022/04/26 04:32:35;;;;;;;18.38;12.13;;;6.70;99.90;;;;;;5053772;28;20115;-75
2022/04/26 04:35:00;;;;;;;17.08;12.27;;;6.70;99.90;;;;;;5070348;28;20076;-75
2022/04/26 04:37:26;;;;;;;19.65;13.63;;;6.70;99.90;;;;;;5069134;28;20127;-75
2022/04/26 04:39:52;;;;;;;15.38;12.68;;;6.80;99.90;;;;;;5045419;28;20537;-75
2022/04/26 04:42:17;;;;;;;21.23;12.32;;;6.80;99.90;;;;;;5047156;28;20034;-75
2022/04/26 04:44:43;;;;;;;18.00;13.10;;;6.80;99.90;;;;;;5069032;28;20140;-75
2022/04/26 04:47:09;;;;;;;18.15;12.35;;;6.80;99.90;;;;;;5049755;28;20041;-75
2022/04/26 04:49:34;;;;;;;18.90;13.18;;;6.80;99.90;;;;;;5066391;28;20094;-75
2022/04/26 04:52:00;;;;;;;18.13;13.20;;;6.80;99.90;;;;;;5070121;28;20405;-76
2022/04/26 04:54:25;;;;;;;18.08;12.85;;;6.90;99.90;;;;;;5053910;28;20044;-75
2022/04/26 04:56:51;;;;;;;20.65;13.20;;;6.90;99.90;;;;;;5069532;28;20032;-75
2022/04/26 04:59:16;;;;;;;19.35;13.02;;;6.90;99.90;;;;;;5065737;28;20045;-75
2022/04/26 05:01:42;;;;;;;20.88;13.43;;;6.90;99.90;;;;;;5074060;28;20184;-75
2022/04/26 05:04:08;;;;;;;17.75;12.85;;;7.00;99.90;;;;;;5055272;28;20048;-75
2022/04/26 05:06:34;;;;;;;18.52;12.13;;;7.00;99.90;;;;;;5055848;28;20032;-75
2022/04/26 05:09:00;;;;;;;20.98;12.02;;;7.00;99.90;;;;;;5066985;28;20093;-75
2022/04/26 05:11:25;;;;;;;17.52;11.95;;;7.00;99.90;;;;;;5055977;28;20041;-76
2022/04/26 05:13:51;;;;;;;16.35;10.73;;;7.00;99.90;;;;;;5053269;28;20028;-76
2022/04/26 05:16:16;;;;;;;18.30;11.15;;;7.00;99.90;;;;;;5073909;28;20041;-76
2022/04/26 05:18:42;;;;;;;19.65;10.77;;;7.10;99.90;;;;;;5055660;28;20108;-75
2022/04/26 05:21:09;;;;;;;17.88;11.45;;;7.10;99.90;;;;;;5068046;28;20037;-75
2022/04/26 05:26:19;;;;;;;17.27;10.27;;;7.10;99.90;;;;;;5073418;28;20067;-75
2022/04/26 05:28:45;;;;;;;16.27;9.82;;;7.10;99.90;;;;;;5067487;28;20483;-75
2022/04/26 05:31:10;;;;;;;16.58;10.02;;;7.20;99.90;;;;;;5073397;28;20033;-75
2022/04/26 05:33:36;;;;;;;14.90;10.05;;;7.20;99.90;;;;;;5047807;28;20029;-75
2022/04/26 05:36:03;;;;;;;18.73;9.50;;;7.20;99.90;;;;;;5073327;28;20100;-75
2022/04/26 05:38:28;;;;;;;17.10;8.98;;;7.20;99.90;;;;;;5054684;28;20115;-75
2022/04/26 05:40:54;;;;;;;13.15;9.35;;;7.30;99.90;;;;;;5072380;28;20131;-75
2022/04/26 05:43:19;;;;;;;12.98;9.38;;;7.30;99.90;;;;;;5056350;28;20041;-75
2022/04/26 05:45:45;;;;;;;13.52;8.82;;;7.30;99.90;;;;;;5050073;28;20044;-75
2022/04/26 05:48:13;;;;;;;17.25;9.32;;;7.40;99.90;;;;;;5049091;28;20072;-75
2022/04/26 05:50:39;;;;;;;14.65;7.60;;;7.40;99.90;;;;;;5056315;28;20390;-75
2022/04/26 05:53:05;;;;;;;14.93;8.35;;;7.50;99.90;;;;;;5055441;28;21009;-75
2022/04/26 05:55:30;;;;;;;18.00;8.13;;;7.50;99.90;;;;;;5072781;28;20037;-75
2022/04/26 05:57:56;;;;;;;14.93;7.97;;;7.50;99.90;;;;;;5056377;28;20044;-75
2022/04/26 06:00:22;;;;;;;14.77;7.38;;;7.60;99.90;;;;;;5053769;28;20050;-76
2022/04/26 06:02:48;;;;;;;14.85;6.90;;;7.70;99.90;;;;;;5070374;28;20068;-75
2022/04/26 06:05:14;;;;;;;17.00;7.93;;;7.70;99.90;;;;;;5055681;28;20047;-75
2022/04/26 06:07:40;;;;;;;12.93;6.63;;;7.80;99.90;;;;;;5072433;28;20040;-76
2022/04/26 06:10:07;;;;;;;10.05;6.15;;;7.80;99.90;;;;;;5070249;28;20477;-76
2022/04/26 06:12:34;;;;;;;12.30;6.97;;;7.90;99.90;;;;;;5053108;28;20036;-76
2022/04/26 06:14:59;;;;;;;13.60;6.60;;;7.90;99.90;;;;;;5065750;28;20499;-76
2022/04/26 06:17:25;;;;;;;10.07;6.05;;;8.10;99.90;;;;;;5069253;28;20047;-76
2022/04/26 06:19:51;;;;;;;12.45;6.25;;;8.10;99.90;;;;;;5052761;28;20387;-76
2022/04/26 06:22:17;;;;;;;14.38;6.40;;;8.20;99.90;;;;;;5051326;28;20040;-74
2022/04/26 06:24:42;;;;;;;9.95;6.15;;;8.20;99.90;;;;;;5070650;28;20057;-75
2022/04/26 06:27:08;;;;;;;15.63;6.05;;;8.40;99.90;;;;;;5059575;28;20044;-76
2022/04/26 06:29:34;;;;;;;10.10;6.38;;;8.40;99.90;;;;;;5059209;28;20844;-75
2022/04/26 06:31:59;;;;;;;11.40;6.05;;;8.50;99.90;;;;;;5056121;28;20040;-74
2022/04/26 06:34:26;;;;;;;11.60;6.57;;;8.60;99.90;;;;;;5044187;28;20041;-75
2022/04/26 06:36:51;;;;;;;11.60;5.80;;;8.70;99.90;;;;;;5069918;28;20430;-74
2022/04/26 06:39:17;;;;;;;12.90;5.88;;;8.70;99.90;;;;;;5065485;28;20094;-75
2022/04/26 06:41:43;;;;;;;10.20;6.05;;;8.80;99.90;;;;;;5054921;28;20511;-74
2022/04/26 06:44:08;;;;;;;9.13;6.15;;;8.80;99.90;;;;;;5064724;28;20114;-74
2022/04/26 06:46:37;;;;;;;9.35;5.40;;;8.80;99.90;;;;;;5055372;28;20542;-74
2022/04/26 06:49:03;;;;;;;10.38;5.43;;;8.90;99.90;;;;;;5064827;28;20043;-74
2022/04/26 06:51:35;;;;;;;14.20;6.80;;;9.00;99.90;;;;;;5062167;28;20469;-75
2022/04/26 06:54:01;;;;;;;10.90;6.03;;;9.00;99.90;;;;;;5052410;28;20063;-75
2022/04/26 06:56:27;;;;;;;10.52;5.60;;;9.10;99.90;;;;;;5070028;28;20510;-74
2022/04/26 06:58:52;;;;;;;11.52;6.25;;;9.20;99.90;;;;;;5055200;28;20071;-75
2022/04/26 07:01:18;;;;;;;11.73;6.10;;;9.30;99.90;;;;;;5055386;28;20086;-74
2022/04/26 07:03:43;;;;;;;11.15;5.97;;;9.40;99.90;;;;;;5067424;28;20049;-75
2022/04/26 07:06:09;;;;;;;9.85;5.80;;;9.40;99.90;;;;;;5071939;28;20032;-74
2022/04/26 07:08:34;;;;;;;11.43;6.13;;;9.60;99.90;;;;;;5071363;28;20037;-74
2022/04/26 07:11:00;;;;;;;12.30;5.88;;;9.60;99.90;;;;;;5067729;28;20045;-75
2022/04/26 07:13:25;;;;;;;11.60;6.38;;;9.70;99.90;;;;;;5059356;28;20043;-74
2022/04/26 07:15:51;;;;;;;11.48;6.00;;;9.80;99.90;;;;;;5045642;28;20132;-75
2022/04/26 07:18:16;;;;;;;11.10;6.43;;;10.10;99.90;;;;;;5058488;28;20040;-75
2022/04/26 07:20:44;;;;;;;8.50;5.45;;;10.30;99.90;;;;;;5056674;28;20037;-74
2022/04/26 07:23:10;;;;;;;10.23;5.20;;;10.40;99.90;;;;;;5067861;28;20045;-74
2022/04/26 07:25:36;;;;;;;14.20;5.68;;;10.60;99.90;;;;;;5050289;28;20041;-73
2022/04/26 07:28:01;;;;;;;9.70;4.75;;;10.70;99.90;;;;;;5062473;28;20044;-77
2022/04/26 07:30:34;;;;;;;6.95;4.75;;;10.80;99.90;;;;;;5055219;28;20048;-73
2022/04/26 07:35:44;;;;;;;7.20;4.50;;;11.20;99.90;;;;;;5071296;28;20430;-75
2022/04/26 07:38:10;;;;;;;8.32;4.25;;;11.30;99.90;;;;;;5071003;28;20119;-75
2022/04/26 07:40:36;;;;;;;8.52;3.90;;;11.30;99.90;;;;;;5065204;28;20041;-75
2022/04/26 07:43:03;;;;;;;9.75;4.50;;;11.40;99.90;;;;;;5070921;28;20089;-75
2022/04/26 07:45:30;;;;;;;12.07;4.20;;;11.50;99.90;;;;;;5071092;28;20082;-74
2022/04/26 07:47:56;;;;;;;9.18;4.70;;;11.60;99.90;;;;;;5053081;28;20040;-75
2022/04/26 07:50:21;;;;;;;6.78;4.20;;;11.60;99.90;;;;;;5071022;28;20384;-75
2022/04/26 07:52:47;;;;;;;6.88;3.95;;;11.60;99.90;;;;;;5071084;28;20495;-75
2022/04/26 07:55:13;;;;;;;8.90;3.88;;;11.60;99.90;;;;;;5043305;28;20040;-75
2022/04/26 07:57:39;;;;;;;6.75;3.80;;;11.60;99.90;;;;;;5067723;28;20832;-75
2022/04/26 08:00:05;;;;;;;6.43;4.00;;;11.60;99.90;;;;;;5063698;28;20067;-75
2022/04/26 08:02:31;;;;;;;5.57;3.53;;;11.60;99.90;;;;;;5054009;28;20509;-75
2022/04/26 08:05:01;;;;;;;5.95;3.55;;;11.50;99.90;;;;;;5070906;28;20037;-75
2022/04/26 08:07:30;;;;;;;7.15;3.70;;;11.60;99.90;;;;;;5070805;28;20044;-75
2022/04/26 08:09:58;;;;;;;8.75;3.55;;;11.60;99.90;;;;;;5067961;28;20052;-75
2022/04/26 08:12:24;;;;;;;7.57;3.65;;;11.80;99.90;;;;;;5058629;28;20045;-74
2022/04/26 08:14:49;;;;;;;4.50;3.00;;;12.00;99.90;;;;;;5053886;28;20102;-74
2022/04/26 08:17:15;;;;;;;10.63;3.63;;;12.10;99.90;;;;;;5070573;28;20048;-75
2022/04/26 08:19:44;;;;;;;7.15;3.30;;;12.10;99.90;;;;;;5071073;28;20067;-75
2022/04/26 08:22:10;;;;;;;5.85;3.58;;;12.10;99.90;;;;;;5070439;28;20040;-75
2022/04/26 08:27:23;;;;;;;6.22;3.55;;;12.10;99.90;;;;;;5066147;28;20098;-75
2022/04/26 08:29:49;;;;;;;9.88;3.97;;;12.30;99.90;;;;;;5069719;28;20052;-75
2022/04/26 08:32:14;;;;;;;8.75;3.80;;;12.30;99.90;;;;;;5070290;28;20090;-75
2022/04/26 08:34:41;;;;;;;5.88;3.33;;;12.30;99.90;;;;;;5053941;28;20441;-75
2022/04/26 08:37:07;;;;;;;9.25;4.40;;;12.20;99.90;;;;;;5066517;28;20085;-75
2022/04/26 08:39:32;;;;;;;7.88;3.63;;;12.30;99.90;;;;;;5070300;28;20036;-74
2022/04/26 08:41:59;;;;;;;7.07;3.60;;;12.10;99.90;;;;;;5053680;28;20120;-75
2022/04/26 08:44:29;;;;;;;5.93;3.50;;;12.10;99.90;;;;;;5067633;28;20080;-74
2022/04/26 08:52:52;;;;;;;6.72;3.67;;;12.60;99.90;;;;;;4983291;28;20403;-77
2022/04/26 08:56:00;;;;;;;7.15;3.33;;;12.80;99.90;;;;;;4964784;28;20045;-78
2022/04/26 08:58:48;;;;;;;11.75;3.63;;;12.80;98.90;;;;;;4954540;28;20046;-77
2022/04/26 09:02:19;;;;;;;7.68;3.60;;;12.70;99.90;;;;;;4955447;28;20046;-77
2022/04/26 09:05:28;;;;;;;7.82;4.00;;;12.60;99.90;;;;;;4968339;28;20043;-77
2022/04/26 09:07:58;;;;;;;;;;;12.60;99.90;;;;;;4934578;29;20422;-77
2022/04/26 09:10:41;;;;;;;6.72;4.03;;;12.50;99.90;;;;;;4958907;28;19918;-77
2022/04/26 09:13:44;;;;;;;5.47;3.28;;;12.50;99.90;;;;;;4954708;28;20086;-77
2022/04/26 09:16:29;;;;;;;4.55;3.00;;;12.40;99.90;;;;;;4955027;28;20071;-77
2022/04/26 09:19:06;;;;;;;6.22;3.78;;;12.50;99.40;;;;;;4965959;28;20046;-76
2022/04/26 09:21:53;;;;;;;6.30;3.60;;;12.30;99.90;;;;;;4966606;28;20050;-76
2022/04/26 09:24:44;;;;;;;5.65;3.30;;;12.40;99.90;;;;;;4963902;28;20108;-76
2022/04/26 09:27:29;;;;;;;;;;;;;;;;;;;;;
2022/04/26 09:30:09;;;;;;;5.75;3.30;;;12.60;99.90;;;;;;4982265;28;20137;-74
2022/04/26 09:32:51;;;;;;;6.50;3.60;;;12.60;99.60;;;;;;4964571;28;20130;-76
2022/04/26 09:35:32;;;;;;;6.65;3.30;;;12.80;98.50;;;;;;4963863;28;20299;-75
2022/04/26 09:38:12;;;;;;;7.13;3.20;;;12.80;99.90;;;;;;4962796;28;20129;-75
2022/04/26 09:41:00;;;;;;;7.43;3.17;;;13.00;99.90;;;;;;4977950;28;20054;-75
2022/04/26 09:43:26;;;;;;;6.78;3.63;;;13.10;99.80;;;;;;4966716;28;20178;-76
2022/04/26 09:45:59;;;;;;;5.10;3.38;;;13.20;98.20;;;;;;4960112;28;20134;-76
2022/04/26 09:48:53;;;;;;;5.38;3.10;;;13.40;97.30;;;;;;4971983;28;20181;-76
2022/04/26 09:51:24;;;;;;;6.22;3.08;;;13.40;91.70;;;;;;4963754;28;20042;-75
2022/04/26 09:53:52;;;;;;;4.90;2.90;;;13.30;94.10;;;;;;4986439;28;20055;-75
2022/04/26 09:56:24;;;;;;;4.82;2.80;;;13.40;95.90;;;;;;4989760;28;20066;-75
2022/04/26 09:59:00;;;;;;;5.00;3.15;;;13.90;96.00;;;;;;4972901;28;20042;-75
2022/04/26 10:01:47;;;;;;;3.58;3.05;;;14.40;92.30;;;;;;4956280;28;20146;-75
2022/04/26 10:04:21;;;;;;;7.22;3.13;;;15.00;82.70;;;;;;4954465;28;20043;-75
2022/04/26 10:06:52;;;;;;;6.70;3.28;;;14.90;91.10;;;;;;4953359;28;20032;-75
2022/04/26 10:09:19;;;;;;;5.13;3.30;;;15.00;92.60;;;;;;4963346;28;20497;-76
2022/04/26 10:11:57;;;;;;;5.80;2.80;;;15.40;93.40;;;;;;4952610;28;20089;-74
2022/04/26 10:14:28;;;;;;;7.82;3.00;;;15.50;80.00;;;;;;4942450;29;20457;-75
2022/04/26 10:17:03;;;;;;;6.50;3.03;;;15.20;80.70;;;;;;4963880;28;20085;-74
2022/04/26 10:19:40;;;;;;;4.97;3.10;;;14.90;82.40;;;;;;4948106;28;20050;-73
2022/04/26 10:22:15;;;;;;;4.60;2.80;;;15.10;76.60;;;;;;4971842;28;20094;-74
2022/04/26 10:25:12;;;;;;;9.18;2.90;;;15.00;76.60;;;;;;4971109;28;20051;-74
2022/04/26 10:27:40;;;;;;;5.20;2.88;;;15.30;70.00;;;;;;4950036;28;20049;-73
2022/04/26 10:30:06;;;;;;;3.53;2.80;;;15.20;76.00;;;;;;4967105;28;20047;-74
2022/04/26 10:32:43;;;;;;;5.10;2.83;;;15.20;80.60;;;;;;4955637;28;20047;-75
2022/04/26 10:35:26;;;;;;;4.05;3.00;;;15.20;83.20;;;;;;4948017;28;20413;-74
2022/04/26 10:38:16;;;;;;;5.65;2.90;;;15.00;80.90;;;;;;4943644;28;20409;-74
2022/04/26 10:41:03;;;;;;;;;;;14.90;86.40;;;;;;4959017;28;20134;-74
2022/04/26 10:43:32;;;;;;;5.50;2.90;;;14.90;79.60;;;;;;4968296;28;19929;-76
2022/04/26 10:46:18;;;;;;;7.15;2.92;;;14.80;90.60;;;;;;4948729;28;20035;-75
2022/04/26 10:48:49;;;;;;;4.88;2.42;;;15.10;90.40;;;;;;4941992;28;20074;-75
2022/04/26 10:51:37;;;;;;;5.05;2.85;;;15.70;78.60;;;;;;4938413;28;20031;-77
2022/04/26 10:54:04;;;;;;;4.80;2.55;;;16.30;66.10;;;;;;4948014;28;20121;-76
2022/04/26 10:56:35;;;;;;;6.40;2.53;;;16.90;86.90;;;;;;4949462;28;20034;-77
2022/04/26 10:59:18;;;;;;;4.80;2.53;;;17.40;74.70;;;;;;4964244;28;20067;-78
2022/04/26 11:01:46;;;;;;;5.30;2.35;;;18.00;66.60;;;;;;4957827;28;20053;-77
2022/04/26 11:04:17;;;;;;;6.18;2.50;;;18.10;60.10;;;;;;4950030;28;20126;-77
2022/04/26 11:06:48;;;;;;;5.47;2.58;;;17.80;62.20;;;;;;4971157;28;20492;-77
2022/04/26 11:09:15;;;;;;;4.30;2.70;;;17.90;67.20;;;;;;4948485;28;20049;-77
2022/04/26 11:12:01;;;;;;;4.65;2.45;;;18.50;71.00;;;;;;4969923;28;20500;-77
2022/04/26 11:14:28;;;;;;;3.40;2.00;;;19.10;60.10;;;;;;4952564;28;20105;-78
2022/04/26 11:17:06;;;;;;;4.40;2.58;;;19.30;57.30;;;;;;4952604;28;20035;-76
2022/04/26 11:19:36;;;;;;;3.25;2.30;;;19.30;56.00;;;;;;4952893;28;20097;-77
2022/04/26 11:22:10;;;;;;;2.80;1.95;;;19.50;57.70;;;;;;4947837;28;20043;-77
2022/04/26 11:30:17;;;;;;;5.00;3.00;;;20.20;53.40;;;;;;4958480;28;20047;-77
2022/04/26 11:32:45;;;;;;;3.30;2.25;;;20.50;50.80;;;;;;4940164;28;20100;-77
2022/04/26 11:35:21;;;;;;;3.50;2.13;;;20.80;54.80;;;;;;4955778;28;20121;-77
2022/04/26 11:37:54;;;;;;;5.78;2.47;;;20.90;50.00;;;;;;4963665;28;20034;-77
2022/04/26 11:40:34;;;;;;;5.68;2.45;;;19.80;51.60;;;;;;4952269;28;20829;-77
2022/04/26 11:43:15;;;;;;;3.38;2.30;;;18.50;52.30;;;;;;4953752;28;20039;-76
2022/04/26 11:45:44;;;;;;;4.40;2.45;;;17.80;58.30;;;;;;4950909;28;20065;-77
2022/04/26 11:48:15;;;;;;;3.22;2.55;;;18.30;56.90;;;;;;4951079;28;20035;-76
2022/04/26 11:50:52;;;;;;;8.35;2.67;;;18.90;56.00;;;;;;4962436;28;20529;-77
2022/04/26 11:53:36;;;;;;;4.85;2.60;;;19.50;59.40;;;;;;4958096;28;20044;-77
2022/04/26 11:56:49;;;;;;;4.65;2.30;;;20.30;55.50;;;;;;4952038;28;20035;-77
2022/04/26 11:59:20;;;;;;;4.00;2.50;;;20.80;50.40;;;;;;4959634;28;20062;-77
2022/04/26 12:01:55;;;;;;;4.63;2.20;;;20.80;53.80;;;;;;4938240;28;20053;-76
2022/04/26 12:04:41;;;;;;;5.15;2.30;;;21.40;52.00;;;;;;4940804;28;20043;-77
2022/04/26 12:07:19;;;;;;;5.18;2.28;;;21.60;46.50;;;;;;4954478;28;20034;-76
2022/04/26 12:09:53;;;;;;;2.95;2.20;;;21.20;47.80;;;;;;4943668;28;20043;-76
2022/04/26 12:12:29;;;;;;;3.63;2.10;;;21.30;50.30;;;;;;4944592;28;20051;-77
2022/04/26 12:15:09;;;;;;;4.15;2.20;;;21.50;46.70;;;;;;4947874;28;20050;-77
2022/04/26 12:17:34;;;;;;;3.95;2.20;;;21.20;48.50;;;;;;4947857;28;20034;-77
2022/04/26 12:20:12;;;;;;;3.58;2.38;;;21.50;49.70;;;;;;4953500;28;20051;-76
2022/04/26 12:22:43;;;;;;;3.88;2.20;;;22.00;50.10;;;;;;4948735;28;20058;-74
2022/04/26 12:25:33;;;;;;;4.45;2.40;;;22.20;47.30;;;;;;4952892;28;20051;-75
2022/04/26 12:28:17;;;;;;;4.47;2.28;;;21.80;48.80;;;;;;4949745;28;20050;-75
2022/04/26 12:30:43;;;;;;;4.03;2.20;;;21.30;47.30;;;;;;4938965;28;20128;-75
2022/04/26 12:33:11;;;;;;;3.55;2.00;;;21.40;50.90;;;;;;4970121;28;20136;-76
2022/04/26 12:35:56;;;;;;;4.55;2.53;;;22.20;50.50;;;;;;4947514;28;20050;-76
2022/04/26 12:38:27;;;;;;;4.75;2.30;;;22.70;48.20;;;;;;4954143;28;20508;-76
2022/04/26 12:41:06;;;;;;;4.15;2.08;;;22.80;47.10;;;;;;4963571;28;20524;-75
2022/04/26 12:43:43;;;;;;;3.25;2.30;;;22.40;45.80;;;;;;4946907;28;20097;-75
2022/04/26 12:46:12;;;;;;;4.32;2.08;;;21.30;45.70;;;;;;4954613;28;20057;-75
2022/04/26 12:51:53;;;;;;;5.20;2.40;;;18.70;45.40;;;;;;4957933;28;20046;-75
2022/04/26 12:54:25;;;;;;;2.83;1.92;;;17.60;48.50;;;;;;4947186;28;20046;-75
2022/04/26 12:57:03;;;;;;;4.13;2.47;;;18.00;48.60;;;;;;4960485;28;20517;-75
2022/04/26 12:59:39;;;;;;;5.05;2.60;;;18.50;50.10;;;;;;4950979;28;20035;-75
2022/04/26 13:02:10;;;;;;;4.68;2.70;;;18.20;49.30;;;;;;4951028;28;20039;-75
2022/04/26 13:04:36;;;;;;;3.47;2.05;;;17.50;51.10;;;;;;4947184;28;20138;-75
2022/04/26 13:07:07;;;;;;;5.80;2.30;;;17.00;53.30;;;;;;4970579;28;20125;-75
2022/04/26 13:09:33;;;;;;;4.68;2.30;;;17.20;56.20;;;;;;4953143;28;20090;-75
2022/04/26 13:11:58;;;;;;;5.20;2.42;;;17.40;53.40;;;;;;4952740;28;20047;-75
2022/04/26 13:14:26;;;;;;;5.10;2.25;;;17.50;55.20;;;;;;4946897;28;20422;-75
2022/04/26 13:16:52;;;;;;;3.72;2.10;;;18.50;54.00;;;;;;4970336;28;20048;-75
2022/04/26 13:19:22;;;;;;;2.95;1.90;;;19.30;49.10;;;;;;4954463;28;20081;-75
2022/04/26 13:21:53;;;;;;;3.67;2.00;;;19.00;49.40;;;;;;4954756;28;20502;-75
2022/04/26 13:24:28;;;;;;;5.50;2.40;;;18.50;47.00;;;;;;4954688;28;20042;-75
2022/04/26 13:26:56;;;;;;;3.97;2.40;;;17.70;48.80;;;;;;4957799;28;20090;-75
2022/04/26 13:29:31;;;;;;;2.83;1.98;;;17.20;50.50;;;;;;4957599;28;20047;-75
2022/04/26 13:31:58;;;;;;;4.22;2.15;;;17.60;49.90;;;;;;4970146;28;20047;-75
2022/04/26 13:34:28;;;;;;;3.17;2.38;;;17.70;49.60;;;;;;4970700;28;20050;-75
2022/04/26 13:36:54;;;;;;;4.47;2.50;;;17.10;50.90;;;;;;4951324;28;20069;-75
2022/04/26 13:39:29;;;;;;;6.07;2.60;;;16.60;53.10;;;;;;4957582;28;20054;-75
2022/04/26 13:42:05;;;;;;;5.28;2.50;;;16.30;52.80;;;;;;4951173;28;20046;-75
2022/04/26 13:44:38;;;;;;;3.13;2.20;;;16.40;53.70;;;;;;4955016;28;20039;-75
2022/04/26 13:47:13;;;;;;;3.97;2.35;;;17.10;54.40;;;;;;4950843;28;20141;-75
2022/04/26 13:49:40;;;;;;;3.13;1.92;;;18.20;55.60;;;;;;4954428;28;20090;-75
2022/04/26 13:52:16;;;;;;;3.97;2.38;;;19.10;48.50;;;;;;4950182;28;20035;-75
2022/04/26 13:54:53;;;;;;;4.78;2.17;;;19.50;51.30;;;;;;4956210;28;20050;-75
2022/04/26 13:57:27;;;;;;;2.80;2.30;;;19.10;49.20;;;;;;4950891;28;20034;-75
2022/04/26 14:00:03;;;;;;;4.07;2.42;;;18.10;49.60;;;;;;4968350;28;20051;-75
2022/04/26 14:02:31;;;;;;;4.15;2.40;;;17.30;51.30;;;;;;4969780;28;20046;-75
2022/04/26 14:05:00;;;;;;;4.93;2.28;;;16.60;51.60;;;;;;4949826;28;20039;-75
2022/04/26 14:07:26;;;;;;;4.75;2.70;;;16.40;55.00;;;;;;4971122;28;20039;-75
2022/04/26 14:09:57;;;;;;;5.43;2.50;;;17.00;56.00;;;;;;4952836;28;20065;-75
2022/04/26 14:12:28;;;;;;;4.80;2.50;;;17.20;51.70;;;;;;4952748;28;20066;-75
2022/04/26 14:23:17;;;;;;;4.50;2.50;;;18.90;51.00;;;;;;4973140;28;20035;-75
2022/04/26 14:25:50;;;;;;;4.13;2.70;;;18.90;49.30;;;;;;4965516;28;20520;-75
2022/04/26 14:28:24;;;;;;;3.15;2.40;;;18.80;49.20;;;;;;4951397;28;20039;-75
2022/04/26 14:30:53;;;;;;;3.80;2.78;;;18.90;51.20;;;;;;4947535;28;20035;-74
2022/04/26 14:33:27;;;;;;;3.92;2.67;;;19.10;51.10;;;;;;4954419;28;20420;-75
2022/04/26 14:36:03;;;;;;;3.75;2.55;;;19.40;51.20;;;;;;4950037;28;20066;-75
2022/04/26 14:38:34;;;;;;;4.32;2.60;;;19.50;48.30;;;;;;4955868;28;20047;-75
2022/04/26 14:41:06;;;;;;;4.10;2.67;;;19.20;49.00;;;;;;4966283;28;20041;-75
2022/04/26 14:43:40;;;;;;;5.43;2.90;;;18.90;51.00;;;;;;4964760;28;20634;-75
2022/04/26 14:46:10;;;;;;;4.95;2.72;;;19.00;51.60;;;;;;4972455;28;20057;-75
2022/04/26 14:48:39;;;;;;;;;;;18.90;51.50;;;;;;4955556;28;20043;-75
2022/04/26 14:51:12;;;;;;;3.58;2.80;;;18.70;51.10;;;;;;4939645;28;20266;-75
2022/04/26 14:53:38;;;;;;;5.13;2.42;;;18.40;52.40;;;;;;4953711;28;20089;-75
2022/04/26 14:56:06;;;;;;;4.45;2.45;;;18.20;52.20;;;;;;4955584;28;20035;-75
2022/04/26 14:58:41;;;;;;;3.63;2.60;;;18.20;53.00;;;;;;4948692;28;20075;-75
2022/04/26 15:01:13;;;;;;;3.65;2.60;;;18.20;52.60;;;;;;4955968;28;20042;-75
2022/04/26 15:03:43;;;;;;;2.83;2.40;;;18.20;52.00;;;;;;4971684;28;20453;-75
2022/04/26 15:06:12;;;;;;;4.07;2.50;;;18.10;51.30;;;;;;4965228;28;20121;-75
2022/04/26 15:11:29;;;;;;;4.05;2.60;;;17.80;53.70;;;;;;4968630;28;20119;-74
2022/04/26 15:16:49;;;;;;;4.90;2.72;;;17.20;55.50;;;;;;4971798;28;20054;-75
2022/04/26 15:19:19;;;;;;;4.05;2.60;;;17.10;55.00;;;;;;4966910;28;20043;-74
2022/04/26 15:21:48;;;;;;;4.78;2.80;;;17.00;54.70;;;;;;4971533;28;20051;-75
2022/04/26 15:24:18;;;;;;;5.32;2.78;;;16.60;54.40;;;;;;4955682;28;20039;-75
2022/04/26 15:26:44;;;;;;;4.55;2.80;;;16.20;54.90;;;;;;4952567;28;20034;-74
2022/04/26 15:29:15;;;;;;;5.35;3.00;;;15.80;58.00;;;;;;4966825;28;20414;-74
2022/04/26 15:31:43;;;;;;;7.90;3.15;;;15.50;60.10;;;;;;4969661;28;20101;-74
2022/04/26 15:34:11;;;;;;;4.47;2.70;;;15.30;62.10;;;;;;4966747;28;20038;-75
2022/04/26 15:36:38;;;;;;;4.95;3.20;;;15.10;64.50;;;;;;4953506;28;20044;-74
2022/04/26 15:39:04;;;;;;;3.95;2.85;;;14.80;66.60;;;;;;4945342;28;20136;-74
2022/04/26 15:41:35;;;;;;;5.28;3.13;;;14.60;68.40;;;;;;4954029;28;20055;-74
2022/04/26 15:44:05;;;;;;;6.35;3.30;;;14.40;69.80;;;;;;4951172;28;20103;-74
2022/04/26 15:46:39;;;;;;;4.78;3.08;;;14.20;71.20;;;;;;4954005;28;20307;-75
2022/04/26 15:49:07;;;;;;;5.72;3.60;;;14.20;73.80;;;;;;4967807;28;20050;-74
2022/04/26 15:51:55;;;;;;;4.70;3.13;;;14.10;76.70;;;;;;4949856;28;20055;-74
2022/04/26 15:54:30;;;;;;;7.75;3.47;;;14.00;79.60;;;;;;4957069;28;20493;-74
2022/04/26 15:56:58;;;;;;;8.23;3.67;;;14.00;80.20;;;;;;4937853;28;20051;-75
2022/04/26 15:59:24;;;;;;;4.88;3.40;;;13.80;80.70;;;;;;4957344;28;20097;-74
2022/04/26 16:01:52;;;;;;;6.07;3.35;;;13.70;81.70;;;;;;4985768;28;20477;-74
2022/04/26 16:04:24;;;;;;;4.95;3.20;;;13.70;82.10;;;;;;4950261;28;20035;-76
2022/04/26 16:06:59;;;;;;;5.82;3.60;;;13.70;84.60;;;;;;4949759;28;20405;-74
2022/04/26 16:20:47;;;;;;;6.13;3.20;;;12.80;86.40;;;;;;4963474;28;20129;-74
2022/04/26 16:23:15;;;;;;;4.90;3.28;;;12.50;87.90;;;;;;4948737;28;20046;-75
2022/04/26 16:25:45;;;;;;;9.02;3.42;;;12.20;90.50;;;;;;4965613;28;20043;-74
2022/04/26 16:31:56;;;;;;;5.50;3.15;;;12.00;90.90;;;;;;4939896;28;20059;-77
2022/04/26 16:34:36;;;;;;;5.05;3.20;;;11.90;90.60;;;;;;4950220;28;20413;-76
2022/04/26 16:37:05;;;;;;;7.38;3.28;;;12.00;90.50;;;;;;4945952;28;20453;-77
2022/04/26 16:39:31;;;;;;;5.25;3.20;;;12.00;90.90;;;;;;4937790;28;20043;-77
2022/04/26 16:42:00;;;;;;;5.40;3.78;;;12.10;90.70;;;;;;4936099;29;20039;-77
2022/04/26 16:44:49;;;;;;;7.50;3.58;;;12.20;90.40;;;;;;4936793;29;20043;-76
2022/04/26 16:47:23;;;;;;;6.32;3.08;;;12.30;89.40;;;;;;4969590;28;20121;-75
2022/04/26 16:49:49;;;;;;;6.18;3.45;;;12.40;89.70;;;;;;4940701;28;20054;-77
2022/04/26 16:52:22;;;;;;;7.75;3.88;;;12.40;90.00;;;;;;4974594;28;20042;-76
2022/04/26 16:54:56;;;;;;;7.28;3.40;;;12.50;90.40;;;;;;4955742;29;20042;-74
2022/04/26 16:57:31;;;;;;;6.18;3.70;;;12.50;90.20;;;;;;4965897;28;20046;-74
2022/04/26 17:00:04;;;;;;;6.13;3.58;;;12.50;90.10;;;;;;4966208;28;20045;-74
2022/04/26 17:02:53;;;;;;;5.53;3.20;;;12.50;92.00;;;;;;4958340;28;20125;-74
2022/04/26 17:05:36;;;;;;;7.15;3.35;;;12.50;91.60;;;;;;4958693;28;20049;-74
2022/04/26 17:08:05;;;;;;;6.07;3.35;;;12.50;90.00;;;;;;4944934;28;20121;-74
2022/04/26 17:10:35;;;;;;;5.70;3.45;;;12.50;88.90;;;;;;4957064;28;20053;-73
2022/04/26 17:13:03;;;;;;;5.72;3.20;;;12.50;87.80;;;;;;4955393;28;20042;-73
2022/04/26 17:15:36;;;;;;;8.02;3.05;;;12.40;89.20;;;;;;4969933;28;20556;-73
2022/04/26 17:18:02;;;;;;;4.97;3.25;;;12.30;89.00;;;;;;4944369;29;20050;-73
2022/04/26 17:20:33;;;;;;;4.90;3.25;;;12.10;90.00;;;;;;4941025;28;20043;-73
2022/04/26 17:23:04;;;;;;;5.25;3.53;;;12.00;90.60;;;;;;4969380;28;20120;-73
2022/04/26 17:25:41;;;;;;;5.32;3.30;;;11.80;91.90;;;;;;4950221;28;20039;-73
2022/04/26 17:28:08;;;;;;;6.30;3.35;;;11.70;92.10;;;;;;4963649;28;20039;-75
2022/04/26 17:30:36;;;;;;;7.90;3.85;;;11.70;92.00;;;;;;4946536;29;20126;-75
2022/04/26 17:33:10;;;;;;;6.40;3.22;;;11.60;92.30;;;;;;4939959;28;20085;-75
2022/04/26 17:35:38;;;;;;;4.50;2.92;;;11.50;92.50;;;;;;4947424;28;20054;-75